Time;durP1;ratioP1;P1;durP2;ratioP2;P2;SDS_P1;SDS_P2;PMS_P1;PMS_P2;Temp;Humidity;BMP_temperature;BMP_pressure;BME280_temperature;BME280_humidity;BME280_pressure;Samples;Min_cycle;Max_cycle;Signal;HPM_P1;HPM_P2
2022/09/06 00:01:12;;;;;;;27.03;25.53;;;;;;;;;;5060966;28;20493;-83
2022/09/06 00:03:40;;;;;;;26.30;24.80;;;;;;;;;;5066502;28;20429;-82
2022/09/06 00:06:08;;;;;;;25.47;23.90;;;;;;;;;;5065180;28;20497;-82
2022/09/06 00:08:36;;;;;;;27.60;25.70;;;;;;;;;;5064906;28;20452;-82
2022/09/06 00:11:03;;;;;;;25.60;24.10;;;;;;;;;;5063970;28;20461;-82
2022/09/06 00:13:31;;;;;;;25.20;23.50;;;;;;;;;;5061009;28;20409;-82
2022/09/06 00:16:04;;;;;;;26.73;24.93;;;;;;;;;;5060471;28;20791;-81
2022/09/06 00:18:33;;;;;;;25.90;24.30;;;;;;;;;;5060299;28;20461;-82
2022/09/06 00:21:00;;;;;;;25.87;24.30;;;;;;;;;;5060341;28;20431;-82
2022/09/06 00:23:28;;;;;;;25.60;24.03;;;;;;;;;;5060716;28;20409;-82
2022/09/06 00:26:02;;;;;;;27.80;25.97;;;;;;;;;;5060852;28;20477;-82
2022/09/06 00:28:29;;;;;;;25.73;24.10;;;;;;;;;;5060305;28;20451;-82
2022/09/06 00:30:57;;;;;;;25.97;24.37;;;;;;;;;;5057649;28;20473;-82
2022/09/06 00:33:24;;;;;;;26.20;24.40;;;;;;;;;;5057683;28;20769;-82
2022/09/06 00:35:58;;;;;;;27.50;25.77;;;;;;;;;;5057693;28;20413;-82
2022/09/06 00:38:26;;;;;;;25.43;23.83;;;;;;;;;;5057517;28;20470;-82
2022/09/06 00:40:53;;;;;;;25.77;24.27;;;;;;;;;;5057301;28;20443;-82
2022/09/06 00:43:21;;;;;;;25.20;23.80;;;;;;;;;;5056992;28;20427;-82
2022/09/06 00:45:48;;;;;;;25.97;24.43;;;;;;;;;;5056920;28;20481;-82
2022/09/06 00:48:16;;;;;;;26.10;24.50;;;;;;;;;;5057723;28;20527;-82
2022/09/06 00:50:44;;;;;;;27.27;25.57;;;;;;;;;;5061391;28;20429;-82
2022/09/06 00:53:13;;;;;;;26.07;24.50;;;;;;;;;;5062305;28;20448;-82
2022/09/06 00:55:41;;;;;;;25.47;24.03;;;;;;;;;;5061177;28;20528;-83
2022/09/06 00:58:09;;;;;;;25.77;24.27;;;;;;;;;;5058063;28;20504;-82
2022/09/06 01:00:37;;;;;;;26.90;25.30;;;;;;;;;;5057214;28;20421;-82
2022/09/06 01:03:05;;;;;;;26.27;24.67;;;;;;;;;;5056585;28;20418;-81
2022/09/06 01:05:45;;;;;;;26.83;25.27;;;;;;;;;;5056700;28;20913;-82
2022/09/06 01:08:17;;;;;;;25.87;24.37;;;;;;;;;;5056191;28;20434;-82
2022/09/06 01:11:05;;;;;;;25.40;23.90;;;;;;;;;;5057232;28;20413;-82
2022/09/06 01:13:38;;;;;;;26.30;24.70;;;;;;;;;;5054705;28;20461;-82
2022/09/06 01:16:20;;;;;;;26.57;24.90;;;;;;;;;;5056997;28;20899;-82
2022/09/06 01:18:56;;;;;;;25.43;23.93;;;;;;;;;;5056661;28;20596;-82
2022/09/06 01:21:30;;;;;;;25.83;24.23;;;;;;;;;;5056722;28;20430;-82
2022/09/06 01:24:15;;;;;;;26.03;24.53;;;;;;;;;;5056502;28;20438;-82
2022/09/06 01:27:09;;;;;;;26.10;24.47;;;;;;;;;;5056511;28;20461;-82
2022/09/06 01:29:40;;;;;;;25.90;24.13;;;;;;;;;;5035828;28;20465;-81
2022/09/06 01:32:10;;;;;;;26.40;24.90;;;;;;;;;;5058801;28;20400;-81
2022/09/06 01:34:40;;;;;;;25.87;24.30;;;;;;;;;;5068838;28;20422;-82
2022/09/06 01:37:10;;;;;;;25.60;24.03;;;;;;;;;;5056850;28;20420;-82
2022/09/06 01:39:38;;;;;;;24.60;23.30;;;;;;;;;;5060724;28;20546;-83
2022/09/06 01:42:07;;;;;;;26.13;24.40;;;;;;;;;;5056641;28;20993;-82
2022/09/06 01:44:35;;;;;;;26.77;25.07;;;;;;;;;;5056832;28;20429;-82
2022/09/06 01:47:10;;;;;;;25.43;23.63;;;;;;;;;;5057211;28;20924;-82
2022/09/06 01:49:43;;;;;;;26.87;25.17;;;;;;;;;;5056251;28;20508;-82
2022/09/06 01:52:14;;;;;;;25.60;24.00;;;;;;;;;;5056885;28;20430;-81
2022/09/06 01:54:50;;;;;;;25.50;24.10;;;;;;;;;;5056347;28;21309;-81
2022/09/06 01:57:28;;;;;;;25.43;24.00;;;;;;;;;;5056554;28;20480;-82
2022/09/06 02:00:05;;;;;;;24.97;23.57;;;;;;;;;;5056443;28;20471;-82
2022/09/06 02:02:37;;;;;;;25.50;24.00;;;;;;;;;;5056546;28;20413;-82
2022/09/06 02:05:07;;;;;;;24.70;23.30;;;;;;;;;;5055163;28;20421;-82
2022/09/06 02:07:35;;;;;;;25.23;23.70;;;;;;;;;;5055811;28;20481;-82
2022/09/06 02:10:06;;;;;;;25.93;24.43;;;;;;;;;;5055777;28;20482;-82
2022/09/06 02:12:36;;;;;;;25.93;24.43;;;;;;;;;;5055378;28;20431;-82
2022/09/06 02:15:05;;;;;;;25.57;24.13;;;;;;;;;;5055563;28;20429;-82
2022/09/06 02:17:34;;;;;;;26.63;24.97;;;;;;;;;;5055706;28;20421;-82
2022/09/06 02:20:06;;;;;;;25.50;24.10;;;;;;;;;;5057221;28;20489;-82
2022/09/06 02:22:35;;;;;;;24.43;23.13;;;;;;;;;;5057286;28;20409;-82
2022/09/06 02:25:03;;;;;;;25.60;24.10;;;;;;;;;;5057342;28;20901;-82
2022/09/06 02:27:30;;;;;;;26.30;24.80;;;;;;;;;;5059368;28;20449;-82
2022/09/06 02:29:58;;;;;;;25.63;24.13;;;;;;;;;;5058469;28;20461;-82
2022/09/06 02:32:26;;;;;;;26.40;24.90;;;;;;;;;;5055946;28;20415;-82
2022/09/06 02:34:56;;;;;;;25.00;23.50;;;;;;;;;;5056150;28;20457;-82
2022/09/06 02:37:25;;;;;;;26.33;24.77;;;;;;;;;;5059473;28;20425;-83
2022/09/06 02:39:54;;;;;;;25.60;24.00;;;;;;;;;;5055898;28;20543;-82
2022/09/06 02:42:21;;;;;;;25.10;23.60;;;;;;;;;;5054380;28;20457;-82
2022/09/06 02:44:49;;;;;;;24.87;23.50;;;;;;;;;;5054862;28;20425;-82
2022/09/06 02:47:17;;;;;;;24.50;23.10;;;;;;;;;;5054554;28;20516;-83
2022/09/06 02:49:44;;;;;;;25.50;24.10;;;;;;;;;;5054173;28;20481;-82
2022/09/06 02:52:11;;;;;;;24.60;23.30;;;;;;;;;;5054292;28;20422;-81
2022/09/06 02:54:40;;;;;;;25.30;23.80;;;;;;;;;;5053928;28;20898;-82
2022/09/06 02:57:08;;;;;;;26.07;24.40;;;;;;;;;;5054915;28;20504;-82
2022/09/06 02:59:35;;;;;;;26.10;24.50;;;;;;;;;;5054257;28;20993;-82
2022/09/06 03:02:03;;;;;;;24.97;23.57;;;;;;;;;;5053455;28;20565;-82
2022/09/06 03:04:31;;;;;;;25.50;24.10;;;;;;;;;;5054826;28;20520;-82
2022/09/06 03:06:59;;;;;;;26.13;24.33;;;;;;;;;;5055132;28;20537;-82
2022/09/06 03:09:26;;;;;;;25.33;23.93;;;;;;;;;;5054651;28;20460;-82
2022/09/06 03:11:55;;;;;;;24.70;23.33;;;;;;;;;;5053911;28;20440;-82
2022/09/06 03:14:22;;;;;;;25.47;23.70;;;;;;;;;;5055255;28;20446;-82
2022/09/06 03:16:50;;;;;;;25.53;24.03;;;;;;;;;;5061240;28;20417;-83
2022/09/06 03:19:18;;;;;;;25.90;24.40;;;;;;;;;;5062629;28;20565;-83
2022/09/06 03:21:46;;;;;;;25.50;23.87;;;;;;;;;;5058870;28;20453;-82
2022/09/06 03:24:13;;;;;;;26.03;24.00;;;;;;;;;;5057958;28;20947;-82
2022/09/06 03:26:40;;;;;;;25.63;24.13;;;;;;;;;;5056125;28;20449;-82
2022/09/06 03:29:09;;;;;;;25.90;24.20;;;;;;;;;;5054498;28;20567;-82
2022/09/06 03:31:38;;;;;;;25.60;24.10;;;;;;;;;;5054752;28;20439;-82
2022/09/06 03:34:05;;;;;;;26.50;24.93;;;;;;;;;;5054859;28;20473;-82
2022/09/06 03:36:33;;;;;;;26.20;24.70;;;;;;;;;;5055200;28;20480;-82
2022/09/06 03:39:00;;;;;;;25.50;23.90;;;;;;;;;;5054336;28;20470;-82
2022/09/06 03:41:28;;;;;;;25.07;23.67;;;;;;;;;;5054598;28;20416;-82
2022/09/06 03:43:55;;;;;;;25.90;24.40;;;;;;;;;;5054528;28;20464;-82
2022/09/06 03:46:24;;;;;;;26.77;25.17;;;;;;;;;;5054744;28;20429;-82
2022/09/06 03:48:51;;;;;;;24.70;23.27;;;;;;;;;;5054631;28;20428;-82
2022/09/06 03:51:19;;;;;;;25.63;24.07;;;;;;;;;;5054244;28;20936;-81
2022/09/06 03:53:47;;;;;;;25.53;24.13;;;;;;;;;;5055002;28;20416;-82
2022/09/06 03:56:15;;;;;;;25.33;23.87;;;;;;;;;;5054639;28;20921;-82
2022/09/06 03:58:42;;;;;;;26.40;24.80;;;;;;;;;;5054696;28;20798;-82
2022/09/06 04:01:11;;;;;;;27.03;25.47;;;;;;;;;;5053639;28;20468;-82
2022/09/06 04:03:40;;;;;;;26.13;24.53;;;;;;;;;;5054202;28;20443;-82
2022/09/06 04:06:07;;;;;;;25.57;24.00;;;;;;;;;;5058098;28;20508;-83
2022/09/06 04:08:35;;;;;;;25.33;23.93;;;;;;;;;;5063958;28;20480;-83
2022/09/06 04:11:03;;;;;;;25.70;24.10;;;;;;;;;;5061575;28;20447;-82
2022/09/06 04:13:31;;;;;;;25.73;24.13;;;;;;;;;;5061699;28;20405;-83
2022/09/06 04:15:58;;;;;;;25.60;23.90;;;;;;;;;;5058067;28;20435;-82
2022/09/06 04:18:26;;;;;;;26.80;24.90;;;;;;;;;;5058149;28;20449;-82
2022/09/06 04:20:56;;;;;;;25.77;24.10;;;;;;;;;;5057689;28;20435;-82
2022/09/06 04:23:24;;;;;;;25.40;23.90;;;;;;;;;;5057933;28;20424;-81
2022/09/06 04:25:52;;;;;;;25.60;23.90;;;;;;;;;;5058027;28;20446;-82
2022/09/06 04:28:19;;;;;;;25.10;23.70;;;;;;;;;;5057346;28;20764;-82
2022/09/06 04:30:52;;;;;;;26.33;24.83;;;;;;;;;;5057969;28;20878;-82
2022/09/06 04:33:19;;;;;;;25.10;23.40;;;;;;;;;;5057712;28;20396;-82
2022/09/06 04:35:49;;;;;;;26.10;24.60;;;;;;;;;;5057754;28;20928;-82
2022/09/06 04:38:18;;;;;;;24.97;23.53;;;;;;;;;;5057082;28;20466;-82
2022/09/06 04:40:45;;;;;;;25.57;24.17;;;;;;;;;;5057402;28;20906;-82
2022/09/06 04:43:13;;;;;;;26.73;25.13;;;;;;;;;;5057097;28;20431;-82
2022/09/06 04:45:40;;;;;;;27.03;25.23;;;;;;;;;;5058025;28;20429;-81
2022/09/06 04:48:08;;;;;;;25.80;24.30;;;;;;;;;;5057403;28;20813;-82
2022/09/06 04:50:35;;;;;;;26.27;24.77;;;;;;;;;;5056799;28;20479;-82
2022/09/06 04:53:02;;;;;;;25.50;24.07;;;;;;;;;;5056936;28;20413;-82
2022/09/06 04:55:32;;;;;;;25.80;24.40;;;;;;;;;;5060010;28;20456;-82
2022/09/06 04:58:01;;;;;;;27.03;25.40;;;;;;;;;;5062407;28;20484;-83
2022/09/06 05:00:28;;;;;;;26.00;24.43;;;;;;;;;;5061043;28;20462;-82
2022/09/06 05:02:56;;;;;;;25.70;24.30;;;;;;;;;;5058383;28;20854;-82
2022/09/06 05:05:23;;;;;;;25.47;23.70;;;;;;;;;;5058101;28;20417;-82
2022/09/06 05:07:52;;;;;;;25.27;23.77;;;;;;;;;;5057611;28;20485;-82
2022/09/06 05:10:20;;;;;;;26.03;24.53;;;;;;;;;;5056671;28;20478;-79
2022/09/06 05:12:50;;;;;;;25.57;23.90;;;;;;;;;;5056049;28;20446;-79
2022/09/06 05:15:17;;;;;;;26.50;24.70;;;;;;;;;;5056086;28;20417;-79
2022/09/06 05:17:45;;;;;;;27.43;25.87;;;;;;;;;;5056236;28;20420;-80
2022/09/06 05:20:13;;;;;;;25.13;23.70;;;;;;;;;;5056622;28;20474;-78
2022/09/06 05:22:41;;;;;;;26.60;25.03;;;;;;;;;;5055623;28;20532;-80
2022/09/06 05:25:09;;;;;;;26.90;25.30;;;;;;;;;;5057897;28;20458;-79
2022/09/06 05:27:36;;;;;;;25.53;24.03;;;;;;;;;;5059668;28;20544;-79
2022/09/06 05:30:06;;;;;;;25.37;23.87;;;;;;;;;;5064373;28;20905;-79
2022/09/06 05:32:33;;;;;;;26.03;24.43;;;;;;;;;;5057240;28;20413;-79
2022/09/06 05:35:00;;;;;;;25.77;24.37;;;;;;;;;;5058410;28;20419;-79
2022/09/06 05:37:28;;;;;;;27.83;25.93;;;;;;;;;;5058984;28;20424;-80
2022/09/06 05:39:55;;;;;;;26.03;24.53;;;;;;;;;;5057834;28;20489;-80
2022/09/06 05:42:23;;;;;;;26.43;24.93;;;;;;;;;;5058466;28;20450;-79
2022/09/06 05:44:50;;;;;;;26.70;25.10;;;;;;;;;;5060546;28;20435;-79
2022/09/06 05:47:19;;;;;;;26.83;25.20;;;;;;;;;;5058246;28;20470;-79
2022/09/06 05:49:46;;;;;;;27.33;25.60;;;;;;;;;;5057865;28;20457;-80
2022/09/06 05:52:13;;;;;;;26.93;25.23;;;;;;;;;;5057343;28;20431;-80
2022/09/06 05:54:41;;;;;;;25.87;24.07;;;;;;;;;;5057090;28;20441;-80
2022/09/06 05:57:08;;;;;;;26.70;24.80;;;;;;;;;;5057565;28;20428;-79
2022/09/06 05:59:36;;;;;;;25.93;24.07;;;;;;;;;;5057978;28;20444;-79
2022/09/06 06:02:03;;;;;;;26.20;24.70;;;;;;;;;;5057766;28;20473;-79
2022/09/06 06:04:32;;;;;;;26.20;24.70;;;;;;;;;;5058440;28;20462;-80
2022/09/06 06:07:00;;;;;;;26.70;25.10;;;;;;;;;;5056602;28;20437;-79
2022/09/06 06:09:27;;;;;;;26.40;24.60;;;;;;;;;;5058032;28;20475;-79
2022/09/06 06:11:55;;;;;;;27.37;25.57;;;;;;;;;;5056901;28;20496;-79
2022/09/06 06:14:22;;;;;;;27.90;26.00;;;;;;;;;;5058662;28;20458;-80
2022/09/06 06:16:49;;;;;;;26.27;24.77;;;;;;;;;;5057519;28;20543;-80
2022/09/06 06:19:17;;;;;;;27.73;25.90;;;;;;;;;;5057808;28;20993;-80
2022/09/06 06:21:46;;;;;;;26.40;24.90;;;;;;;;;;5056934;28;20450;-79
2022/09/06 06:24:13;;;;;;;27.93;26.03;;;;;;;;;;5056875;28;20431;-80
2022/09/06 06:26:40;;;;;;;28.03;26.10;;;;;;;;;;5059462;28;20492;-80
2022/09/06 06:29:08;;;;;;;29.23;27.20;;;;;;;;;;5055166;28;20464;-80
2022/09/06 06:31:36;;;;;;;27.37;25.47;;;;;;;;;;5056096;28;20452;-80
2022/09/06 06:34:04;;;;;;;27.43;25.60;;;;;;;;;;5055950;28;20788;-80
2022/09/06 06:36:32;;;;;;;27.67;25.90;;;;;;;;;;5058383;28;20432;-81
2022/09/06 06:39:02;;;;;;;26.67;25.10;;;;;;;;;;5057268;28;20467;-79
2022/09/06 06:41:31;;;;;;;28.33;26.33;;;;;;;;;;5056711;28;20454;-80
2022/09/06 06:43:59;;;;;;;27.60;25.90;;;;;;;;;;5056780;28;20786;-79
2022/09/06 06:46:27;;;;;;;28.20;26.50;;;;;;;;;;5056645;28;20920;-86
2022/09/06 06:48:55;;;;;;;27.00;25.40;;;;;;;;;;5054667;28;20473;-80
2022/09/06 06:51:23;;;;;;;28.23;26.40;;;;;;;;;;5057228;28;20421;-80
2022/09/06 06:53:51;;;;;;;26.63;25.13;;;;;;;;;;5056006;28;20450;-79
2022/09/06 06:56:21;;;;;;;26.97;25.37;;;;;;;;;;5057142;28;20429;-79
2022/09/06 06:58:49;;;;;;;26.40;24.50;;;;;;;;;;5053764;28;20991;-80
2022/09/06 07:01:16;;;;;;;26.00;24.40;;;;;;;;;;5055062;28;20942;-79
2022/09/06 07:03:44;;;;;;;25.40;24.00;;;;;;;;;;5055028;28;20429;-79
2022/09/06 07:06:11;;;;;;;25.83;24.43;;;;;;;;;;5051951;28;20901;-79
2022/09/06 07:08:38;;;;;;;26.57;24.70;;;;;;;;;;5039194;28;21011;-79
2022/09/06 07:11:06;;;;;;;26.00;24.30;;;;;;;;;;5036870;28;20455;-80
2022/09/06 07:13:35;;;;;;;26.43;24.83;;;;;;;;;;5054514;28;21282;-79
2022/09/06 07:16:13;;;;;;;25.63;24.13;;;;;;;;;;5055469;28;20989;-79
2022/09/06 07:18:41;;;;;;;26.80;25.23;;;;;;;;;;5055520;28;20447;-79
2022/09/06 07:21:12;;;;;;;27.13;25.43;;;;;;;;;;5055332;28;20455;-78
2022/09/06 07:23:39;;;;;;;26.53;24.83;;;;;;;;;;5057242;28;21048;-80
2022/09/06 07:26:07;;;;;;;26.77;24.83;;;;;;;;;;5058914;28;20429;-78
2022/09/06 07:28:36;;;;;;;26.70;25.00;;;;;;;;;;5057051;28;20487;-80
2022/09/06 07:31:03;;;;;;;26.03;24.43;;;;;;;;;;5044256;28;20940;-80
2022/09/06 07:33:31;;;;;;;26.20;24.60;;;;;;;;;;5056566;28;20483;-80
2022/09/06 07:35:59;;;;;;;27.10;25.57;;;;;;;;;;5056723;28;20479;-80
2022/09/06 07:38:27;;;;;;;26.57;25.07;;;;;;;;;;5057405;28;20937;-80
2022/09/06 07:40:55;;;;;;;26.27;24.67;;;;;;;;;;5058167;28;20445;-80
2022/09/06 07:43:24;;;;;;;26.63;25.07;;;;;;;;;;5060827;28;20516;-79
2022/09/06 07:46:00;;;;;;;26.97;25.03;;;;;;;;;;5060012;28;20457;-80
2022/09/06 07:48:30;;;;;;;25.27;23.77;;;;;;;;;;5060229;28;21014;-80
2022/09/06 07:51:03;;;;;;;27.20;25.30;;;;;;;;;;5061413;28;20428;-80
2022/09/06 07:53:30;;;;;;;26.47;24.93;;;;;;;;;;5061681;28;20413;-79
2022/09/06 07:55:58;;;;;;;27.57;25.70;;;;;;;;;;5059019;28;20435;-79
2022/09/06 07:58:25;;;;;;;26.57;24.80;;;;;;;;;;5058453;28;20448;-79
2022/09/06 08:00:53;;;;;;;26.13;24.40;;;;;;;;;;5056888;28;20421;-81
2022/09/06 08:03:22;;;;;;;25.83;24.43;;;;;;;;;;5059483;28;20546;-79
2022/09/06 08:05:50;;;;;;;26.10;24.57;;;;;;;;;;5059458;28;21189;-80
2022/09/06 08:08:17;;;;;;;25.97;24.20;;;;;;;;;;5059269;28;20476;-81
2022/09/06 08:10:45;;;;;;;26.20;24.60;;;;;;;;;;5056498;28;20445;-80
2022/09/06 08:13:12;;;;;;;26.43;24.57;;;;;;;;;;5060184;28;20445;-80
2022/09/06 08:15:40;;;;;;;26.60;25.20;;;;;;;;;;5060494;28;20482;-81
2022/09/06 08:18:07;;;;;;;26.17;24.37;;;;;;;;;;5058983;28;20432;-81
2022/09/06 08:20:36;;;;;;;26.30;24.70;;;;;;;;;;5060420;28;20413;-81
2022/09/06 08:23:09;;;;;;;26.20;24.47;;;;;;;;;;5058123;28;20458;-79
2022/09/06 08:25:36;;;;;;;26.30;24.80;;;;;;;;;;5058158;28;20401;-80
2022/09/06 08:28:04;;;;;;;26.27;24.47;;;;;;;;;;5057730;28;20530;-80
2022/09/06 08:30:31;;;;;;;25.37;23.87;;;;;;;;;;5057471;28;20467;-80
2022/09/06 08:32:59;;;;;;;25.70;24.10;;;;;;;;;;5057628;28;20450;-80
2022/09/06 08:35:26;;;;;;;26.37;24.77;;;;;;;;;;5057918;28;20472;-81
2022/09/06 08:37:58;;;;;;;26.33;24.73;;;;;;;;;;5058105;28;20487;-80
2022/09/06 08:40:25;;;;;;;25.23;23.67;;;;;;;;;;5058029;28;20408;-79
2022/09/06 08:42:52;;;;;;;25.50;23.80;;;;;;;;;;5057098;28;20429;-80
2022/09/06 08:45:22;;;;;;;23.73;22.43;;;;;;;;;;5057547;28;20463;-79
2022/09/06 08:47:51;;;;;;;24.50;23.00;;;;;;;;;;5056710;28;20787;-79
2022/09/06 08:50:18;;;;;;;24.03;22.63;;;;;;;;;;5057041;28;20466;-79
2022/09/06 08:52:57;;;;;;;25.70;23.73;;;;;;;;;;5057341;28;20920;-80
2022/09/06 08:55:31;;;;;;;24.33;22.90;;;;;;;;;;5060280;28;20410;-77
2022/09/06 08:58:06;;;;;;;25.20;23.47;;;;;;;;;;5059405;28;20442;-77
2022/09/06 09:00:34;;;;;;;24.23;22.83;;;;;;;;;;5059639;28;20894;-81
2022/09/06 09:03:06;;;;;;;23.93;22.43;;;;;;;;;;5061108;28;20474;-81
2022/09/06 09:05:34;;;;;;;25.70;24.10;;;;;;;;;;5062823;28;20434;-81
2022/09/06 09:08:07;;;;;;;25.20;23.80;;;;;;;;;;5059876;28;20557;-79
2022/09/06 09:10:41;;;;;;;24.43;22.93;;;;;;;;;;5059105;28;20394;-79
2022/09/06 09:13:10;;;;;;;24.60;23.20;;;;;;;;;;5059658;28;20497;-78
2022/09/06 09:15:37;;;;;;;23.70;22.20;;;;;;;;;;5058304;28;20447;-79
2022/09/06 09:18:04;;;;;;;24.20;22.80;;;;;;;;;;5058410;28;20457;-78
2022/09/06 09:20:32;;;;;;;25.53;23.77;;;;;;;;;;5057092;28;20416;-77
2022/09/06 09:22:59;;;;;;;24.33;22.93;;;;;;;;;;5056065;28;20444;-78
2022/09/06 09:25:26;;;;;;;25.43;23.73;;;;;;;;;;5062137;28;20442;-79
2022/09/06 09:27:57;;;;;;;25.40;23.90;;;;;;;;;;5062015;28;20461;-78
2022/09/06 09:30:25;;;;;;;25.03;23.40;;;;;;;;;;5060073;28;20490;-78
2022/09/06 09:32:52;;;;;;;24.80;23.10;;;;;;;;;;5058638;28;20530;-77
2022/09/06 09:35:22;;;;;;;24.93;23.43;;;;;;;;;;5061907;28;20442;-76
2022/09/06 09:37:49;;;;;;;23.73;22.20;;;;;;;;;;5056434;28;20457;-78
2022/09/06 09:40:18;;;;;;;25.47;23.70;;;;;;;;;;5056141;28;20458;-79
2022/09/06 09:42:46;;;;;;;25.40;23.67;;;;;;;;;;5056858;28;20471;-84
2022/09/06 09:45:26;;;;;;;24.83;23.30;;;;;;;;;;5056409;28;20754;-80
2022/09/06 09:47:53;;;;;;;25.07;23.57;;;;;;;;;;5058660;28;20407;-78
2022/09/06 09:50:25;;;;;;;27.30;25.43;;;;;;;;;;5057239;28;20488;-80
2022/09/06 09:52:53;;;;;;;25.00;23.30;;;;;;;;;;5060463;28;20407;-79
2022/09/06 09:55:22;;;;;;;23.53;21.80;;;;;;;;;;5055015;28;20475;-80
2022/09/06 09:57:50;;;;;;;23.77;22.27;;;;;;;;;;5055324;28;20427;-78
2022/09/06 10:03:15;;;;;;;25.43;23.83;;;;;;;;;;5131905;27;20524;-78
2022/09/06 10:05:43;;;;;;;26.80;25.20;;;;;;;;;;5132867;28;20442;-81
2022/09/06 10:08:11;;;;;;;25.50;24.00;;;;;;;;;;5131943;27;20448;-80
2022/09/06 10:10:41;;;;;;;27.53;25.93;;;;;;;;;;5133644;28;20413;-79
2022/09/06 10:13:09;;;;;;;27.67;25.97;;;;;;;;;;5131849;28;20947;-80
2022/09/06 10:15:37;;;;;;;27.53;25.73;;;;;;;;;;5133999;28;20509;-79
2022/09/06 10:18:05;;;;;;;27.00;25.30;;;;;;;;;;5132325;28;20923;-80
2022/09/06 10:20:35;;;;;;;25.87;24.17;;;;;;;;;;5133495;28;20421;-80
2022/09/06 10:23:06;;;;;;;25.50;24.03;;;;;;;;;;5131873;28;20474;-81
2022/09/06 10:25:41;;;;;;;26.07;24.40;;;;;;;;;;5132315;28;20503;-80
2022/09/06 10:28:22;;;;;;;25.77;24.10;;;;;;;;;;5133983;28;20425;-80
2022/09/06 10:30:54;;;;;;;24.43;22.87;;;;;;;;;;5132261;27;20464;-81
2022/09/06 10:33:27;;;;;;;26.40;24.80;;;;;;;;;;5133182;28;20676;-80
2022/09/06 10:35:57;;;;;;;25.03;23.53;;;;;;;;;;5132620;28;20440;-80
2022/09/06 10:38:32;;;;;;;26.13;24.43;;;;;;;;;;5132142;28;20503;-79
2022/09/06 10:41:09;;;;;;;26.47;24.87;;;;;;;;;;5134431;27;20541;-84
2022/09/06 10:43:41;;;;;;;25.97;24.37;;;;;;;;;;5134071;28;20443;-82
2022/09/06 10:46:12;;;;;;;26.50;24.80;;;;;;;;;;5132104;27;20459;-82
2022/09/06 10:48:41;;;;;;;26.00;24.13;;;;;;;;;;5131649;28;20475;-82
2022/09/06 10:51:17;;;;;;;26.17;24.47;;;;;;;;;;5131511;28;20443;-82
2022/09/06 10:53:50;;;;;;;27.50;25.80;;;;;;;;;;5134516;27;20435;-82
2022/09/06 10:56:20;;;;;;;25.33;23.83;;;;;;;;;;5132409;28;20420;-81
2022/09/06 10:58:50;;;;;;;25.30;23.70;;;;;;;;;;5132820;28;20476;-82
2022/09/06 11:01:28;;;;;;;26.27;24.57;;;;;;;;;;5134275;28;20443;-81
2022/09/06 11:03:58;;;;;;;26.47;24.77;;;;;;;;;;5134240;27;20496;-82
2022/09/06 11:06:30;;;;;;;27.13;25.00;;;;;;;;;;5132710;28;20406;-76
2022/09/06 11:09:00;;;;;;;27.00;25.40;;;;;;;;;;5135652;27;20453;-82
2022/09/06 11:11:34;;;;;;;25.67;24.03;;;;;;;;;;5140839;28;20465;-81
2022/09/06 11:14:06;;;;;;;26.70;24.90;;;;;;;;;;5127843;28;20434;-82
2022/09/06 11:16:38;;;;;;;27.07;25.13;;;;;;;;;;5122028;28;20462;-76
2022/09/06 11:19:09;;;;;;;25.13;23.63;;;;;;;;;;5124733;28;20492;-77
2022/09/06 11:21:54;;;;;;;26.40;24.70;;;;;;;;;;5123698;28;20572;-76
2022/09/06 11:24:27;;;;;;;24.23;22.83;;;;;;;;;;5123711;28;20430;-77
2022/09/06 11:27:02;;;;;;;26.30;24.70;;;;;;;;;;5123294;28;20478;-77
2022/09/06 11:29:31;;;;;;;26.47;24.97;;;;;;;;;;5121847;28;20456;-78
2022/09/06 11:32:01;;;;;;;27.60;25.67;;;;;;;;;;5122616;28;20437;-76
2022/09/06 11:34:30;;;;;;;26.17;24.67;;;;;;;;;;5118083;28;20505;-75
2022/09/06 11:37:01;;;;;;;26.93;25.33;;;;;;;;;;5119554;28;20450;-75
2022/09/06 11:39:30;;;;;;;26.40;24.80;;;;;;;;;;5120603;28;20468;-79
2022/09/06 11:41:58;;;;;;;27.20;25.60;;;;;;;;;;5122900;28;20966;-79
2022/09/06 11:44:45;;;;;;;26.90;25.13;;;;;;;;;;5121077;28;20436;-77
2022/09/06 11:47:32;;;;;;;26.50;25.00;;;;;;;;;;5120015;28;20430;-77
2022/09/06 11:50:01;;;;;;;26.30;24.53;;;;;;;;;;5125034;28;20486;-76
2022/09/06 11:52:59;;;;;;;26.20;24.60;;;;;;;;;;5122343;28;20435;-77
2022/09/06 11:55:36;;;;;;;25.27;23.87;;;;;;;;;;5121370;28;20495;-80
2022/09/06 11:58:05;;;;;;;25.67;24.23;;;;;;;;;;5121542;28;20482;-81
2022/09/06 12:00:32;;;;;;;25.33;23.83;;;;;;;;;;5120911;28;20419;-76
2022/09/06 12:03:00;;;;;;;26.73;25.13;;;;;;;;;;5116754;28;20519;-77
2022/09/06 12:05:29;;;;;;;26.50;24.90;;;;;;;;;;5120099;28;20455;-77
2022/09/06 12:08:24;;;;;;;26.83;25.23;;;;;;;;;;5119919;28;20454;-78
2022/09/06 12:10:58;;;;;;;25.13;23.73;;;;;;;;;;5118745;27;20440;-82
2022/09/06 12:13:56;;;;;;;26.40;24.80;;;;;;;;;;5119476;28;20439;-80
2022/09/06 12:16:25;;;;;;;26.10;24.50;;;;;;;;;;5120652;28;20425;-81
2022/09/06 12:18:56;;;;;;;25.70;24.10;;;;;;;;;;5124503;28;20458;-81
2022/09/06 12:21:38;;;;;;;26.23;24.73;;;;;;;;;;5118812;28;20386;-81
2022/09/06 12:24:07;;;;;;;27.73;25.93;;;;;;;;;;5119170;28;20465;-82
2022/09/06 12:26:48;;;;;;;26.80;25.20;;;;;;;;;;5119438;28;20462;-77
2022/09/06 12:29:16;;;;;;;27.00;25.40;;;;;;;;;;5118931;28;20456;-81
2022/09/06 12:31:45;;;;;;;27.60;25.90;;;;;;;;;;5117485;28;20943;-80
2022/09/06 12:34:14;;;;;;;26.93;25.23;;;;;;;;;;5119541;28;20458;-77
2022/09/06 12:36:50;;;;;;;26.70;24.87;;;;;;;;;;5118329;28;20437;-77
2022/09/06 12:39:20;;;;;;;26.37;24.87;;;;;;;;;;5116300;28;20476;-77
2022/09/06 12:41:50;;;;;;;26.17;24.67;;;;;;;;;;5117584;28;20423;-81
2022/09/06 12:44:19;;;;;;;25.30;23.90;;;;;;;;;;5116876;28;20394;-76
2022/09/06 12:46:49;;;;;;;26.10;24.50;;;;;;;;;;5116574;28;20502;-75
2022/09/06 12:49:18;;;;;;;26.60;24.90;;;;;;;;;;5117206;28;20449;-76
2022/09/06 12:51:46;;;;;;;26.07;24.57;;;;;;;;;;5115267;28;20589;-77
2022/09/06 12:54:19;;;;;;;26.50;24.90;;;;;;;;;;5115092;28;20548;-76
2022/09/06 12:56:50;;;;;;;25.83;24.33;;;;;;;;;;5115412;28;20418;-76
2022/09/06 12:59:20;;;;;;;28.03;26.23;;;;;;;;;;5115669;28;20445;-83
2022/09/06 13:01:51;;;;;;;24.77;23.23;;;;;;;;;;5116976;28;20436;-76
2022/09/06 13:04:23;;;;;;;25.50;24.00;;;;;;;;;;5116289;28;20866;-76
2022/09/06 13:06:50;;;;;;;25.50;24.10;;;;;;;;;;5115413;28;20398;-77
2022/09/06 13:09:20;;;;;;;26.90;25.07;;;;;;;;;;5114922;28;20457;-80
2022/09/06 13:11:49;;;;;;;26.40;24.70;;;;;;;;;;5115324;28;20476;-76
2022/09/06 13:14:20;;;;;;;26.17;24.40;;;;;;;;;;5114719;28;20520;-77
2022/09/06 13:16:48;;;;;;;25.13;23.70;;;;;;;;;;5116450;28;20417;-81
2022/09/06 13:19:17;;;;;;;25.13;23.53;;;;;;;;;;5115660;28;20462;-76
2022/09/06 13:21:45;;;;;;;26.13;24.53;;;;;;;;;;5114517;28;20899;-77
2022/09/06 13:24:20;;;;;;;24.30;22.80;;;;;;;;;;5115269;28;20827;-77
2022/09/06 13:26:48;;;;;;;25.20;23.73;;;;;;;;;;5114864;28;20433;-77
2022/09/06 13:29:30;;;;;;;24.80;23.40;;;;;;;;;;5115294;28;20883;-76
2022/09/06 13:31:58;;;;;;;26.10;24.47;;;;;;;;;;5112716;28;20481;-76
2022/09/06 13:34:26;;;;;;;26.37;24.77;;;;;;;;;;5115754;28;20494;-77
2022/09/06 13:36:55;;;;;;;25.07;23.60;;;;;;;;;;5116592;28;20447;-77
2022/09/06 13:39:32;;;;;;;27.40;25.77;;;;;;;;;;5115504;28;20475;-76
2022/09/06 13:42:06;;;;;;;26.30;24.70;;;;;;;;;;5115268;28;20700;-76
2022/09/06 13:44:35;;;;;;;24.57;23.17;;;;;;;;;;5116335;28;21338;-77
2022/09/06 13:47:03;;;;;;;26.50;25.00;;;;;;;;;;5116765;28;20439;-76
2022/09/06 13:49:30;;;;;;;25.37;23.87;;;;;;;;;;5119213;28;20490;-77
2022/09/06 13:52:00;;;;;;;25.50;23.90;;;;;;;;;;5117992;28;20432;-77
2022/09/06 13:54:28;;;;;;;25.90;24.40;;;;;;;;;;5116029;28;20436;-77
2022/09/06 13:56:56;;;;;;;24.90;23.50;;;;;;;;;;5116541;28;20498;-76
2022/09/06 13:59:24;;;;;;;24.30;22.90;;;;;;;;;;5120107;28;20464;-77
2022/09/06 14:01:56;;;;;;;26.10;24.20;;;;;;;;;;5116138;28;20817;-77
2022/09/06 14:04:25;;;;;;;25.30;23.80;;;;;;;;;;5116113;28;20785;-77
2022/09/06 14:06:52;;;;;;;25.93;24.33;;;;;;;;;;5118521;28;20456;-77
2022/09/06 14:09:20;;;;;;;24.80;23.40;;;;;;;;;;5117203;28;20504;-77
2022/09/06 14:11:47;;;;;;;26.20;24.70;;;;;;;;;;5118511;28;20806;-77
2022/09/06 14:14:16;;;;;;;27.10;25.60;;;;;;;;;;5116757;28;20421;-78
2022/09/06 14:16:49;;;;;;;25.67;23.97;;;;;;;;;;5118643;28;20919;-77
2022/09/06 14:19:18;;;;;;;26.87;25.30;;;;;;;;;;5117608;28;20549;-77
2022/09/06 14:21:46;;;;;;;27.97;26.17;;;;;;;;;;5116623;28;20433;-77
2022/09/06 14:24:13;;;;;;;27.07;25.57;;;;;;;;;;5116295;28;20656;-77
2022/09/06 14:26:40;;;;;;;26.13;24.63;;;;;;;;;;5116578;28;20458;-78
2022/09/06 14:29:08;;;;;;;26.50;24.90;;;;;;;;;;5116458;28;21225;-77
2022/09/06 14:31:35;;;;;;;27.10;25.10;;;;;;;;;;5115382;28;20447;-78
2022/09/06 14:34:03;;;;;;;25.57;23.97;;;;;;;;;;5116099;28;20419;-77